Time;durP1;ratioP1;P1;durP2;ratioP2;P2;SDS_P1;SDS_P2;PMS_P1;PMS_P2;Temp;Humidity;BMP_temperature;BMP_pressure;BME280_temperature;BME280_humidity;BME280_pressure;Samples;Min_cycle;Max_cycle;Signal;HPM_P1;HPM_P2
2022/08/28 00:01:33;;;;;;;8.32;5.05;;;;;;;;;;4955567;29;20050;-66
2022/08/28 00:03:58;;;;;;;11.30;7.97;;;;;;;;;;4938348;29;20024;-66
2022/08/28 00:06:24;;;;;;;11.88;7.30;;;;;;;;;;4955467;29;20062;-66
2022/08/28 00:08:50;;;;;;;9.55;6.40;;;;;;;;;;4955685;29;20019;-66
2022/08/28 00:11:48;;;;;;;11.23;7.18;;;;;;;;;;4973218;23;20039;-66
2022/08/28 00:14:13;;;;;;;11.05;7.82;;;;;;;;;;4994620;23;20067;-66
2022/08/28 00:16:39;;;;;;;11.20;7.63;;;;;;;;;;4974828;28;20065;-71
2022/08/28 00:19:05;;;;;;;15.32;8.18;;;;;;;;;;4957161;28;20042;-71
2022/08/28 00:21:32;;;;;;;9.75;7.20;;;;;;;;;;4974496;28;20035;-71
2022/08/28 00:24:03;;;;;;;7.28;6.28;;;;;;;;;;4974481;28;20046;-71
2022/08/28 00:29:13;;;;;;;5.35;4.85;;;;;;;;;;4974519;28;20437;-65
2022/08/28 00:31:38;;;;;;;5.40;4.43;;;;;;;;;;4974686;28;20026;-66
2022/08/28 00:34:07;;;;;;;7.47;4.65;;;;;;;;;;4957509;28;20454;-66
2022/08/28 00:36:32;;;;;;;10.23;5.30;;;;;;;;;;4957417;28;20027;-67
2022/08/28 00:38:59;;;;;;;5.88;5.05;;;;;;;;;;4974934;28;20038;-66
2022/08/28 00:41:25;;;;;;;5.18;4.60;;;;;;;;;;4957112;28;20041;-66
2022/08/28 00:44:03;;;;;;;6.07;4.75;;;;;;;;;;4974901;28;20035;-66
2022/08/28 00:46:29;;;;;;;5.20;4.70;;;;;;;;;;4957526;28;20483;-65
2022/08/28 00:48:54;;;;;;;6.68;5.05;;;;;;;;;;4975052;28;20038;-70
2022/08/28 00:54:05;;;;;;;7.85;5.15;;;;;;;;;;4977882;28;20035;-71
2022/08/28 00:56:30;;;;;;;7.07;4.32;;;;;;;;;;4977857;28;20030;-71
2022/08/28 00:58:57;;;;;;;4.63;4.22;;;;;;;;;;4978100;28;20429;-71
2022/08/28 01:01:23;;;;;;;6.90;5.07;;;;;;;;;;4978129;28;20027;-71
2022/08/28 01:03:49;;;;;;;5.40;4.70;;;;;;;;;;4978177;28;20031;-66
2022/08/28 01:06:15;;;;;;;6.13;4.75;;;;;;;;;;4977949;28;20015;-65
2022/08/28 01:08:43;;;;;;;4.97;4.57;;;;;;;;;;4977984;28;20114;-67
2022/08/28 01:11:11;;;;;;;5.75;4.75;;;;;;;;;;4978116;28;20023;-67
2022/08/28 01:13:38;;;;;;;7.03;4.78;;;;;;;;;;4960355;28;20113;-67
2022/08/28 01:16:05;;;;;;;4.60;4.20;;;;;;;;;;4976571;28;20051;-66
2022/08/28 01:18:31;;;;;;;4.82;4.38;;;;;;;;;;4977508;28;20081;-66
2022/08/28 01:21:06;;;;;;;5.97;4.60;;;;;;;;;;4959807;28;20117;-67
2022/08/28 01:23:52;;;;;;;6.75;4.65;;;;;;;;;;4977762;28;20421;-66
2022/08/28 01:26:18;;;;;;;5.30;4.15;;;;;;;;;;4977442;28;20082;-67
2022/08/28 01:28:44;;;;;;;4.53;4.13;;;;;;;;;;4960013;28;20101;-67
2022/08/28 01:31:11;;;;;;;4.93;4.03;;;;;;;;;;4977179;28;20436;-67
2022/08/28 01:33:36;;;;;;;5.28;4.53;;;;;;;;;;4977259;28;20106;-68
2022/08/28 01:36:02;;;;;;;8.43;4.45;;;;;;;;;;4977254;28;20122;-71
2022/08/28 01:38:27;;;;;;;5.30;4.55;;;;;;;;;;4977375;28;20034;-71
2022/08/28 01:40:53;;;;;;;4.70;4.30;;;;;;;;;;4977154;28;20042;-71
2022/08/28 01:43:20;;;;;;;4.95;4.47;;;;;;;;;;4975761;28;20021;-71
2022/08/28 01:45:47;;;;;;;4.75;3.65;;;;;;;;;;4977238;28;20063;-71
2022/08/28 01:48:13;;;;;;;6.25;3.85;;;;;;;;;;4977059;28;20064;-71
2022/08/28 01:50:39;;;;;;;5.07;4.60;;;;;;;;;;4977378;28;20153;-71
2022/08/28 01:53:06;;;;;;;5.28;4.82;;;;;;;;;;4977219;28;20047;-71
2022/08/28 01:55:34;;;;;;;9.20;6.38;;;;;;;;;;4977508;28;20027;-71
2022/08/28 01:58:00;;;;;;;7.22;5.45;;;;;;;;;;4977281;28;20031;-71
2022/08/28 02:00:27;;;;;;;5.72;5.13;;;;;;;;;;4976760;28;20037;-67
2022/08/28 02:02:54;;;;;;;4.70;4.30;;;;;;;;;;4976604;28;20070;-67
2022/08/28 02:05:20;;;;;;;4.20;3.85;;;;;;;;;;4976646;28;20038;-67
2022/08/28 02:07:46;;;;;;;6.72;3.85;;;;;;;;;;4976850;28;20369;-67
2022/08/28 02:10:11;;;;;;;4.53;4.10;;;;;;;;;;4959379;28;20048;-71
2022/08/28 02:12:37;;;;;;;5.18;4.78;;;;;;;;;;4976793;28;20022;-71
2022/08/28 02:15:04;;;;;;;8.55;7.22;;;;;;;;;;4976587;28;20516;-71
2022/08/28 02:17:30;;;;;;;6.97;6.20;;;;;;;;;;4976208;28;20425;-71
2022/08/28 02:19:55;;;;;;;5.20;4.63;;;;;;;;;;4976476;28;20110;-71
2022/08/28 02:22:20;;;;;;;5.72;4.38;;;;;;;;;;4958830;28;20069;-71
2022/08/28 02:24:46;;;;;;;6.63;3.90;;;;;;;;;;4976568;28;20027;-71
2022/08/28 02:27:11;;;;;;;4.35;4.05;;;;;;;;;;4976326;28;20030;-71
2022/08/28 02:29:38;;;;;;;5.60;4.25;;;;;;;;;;4976262;28;20512;-71
2022/08/28 02:32:04;;;;;;;4.63;3.67;;;;;;;;;;4976049;28;20023;-70
2022/08/28 02:34:31;;;;;;;4.53;3.97;;;;;;;;;;4976112;28;20039;-71
2022/08/28 02:36:57;;;;;;;6.25;3.92;;;;;;;;;;4976380;28;20031;-71
2022/08/28 02:39:22;;;;;;;4.82;4.18;;;;;;;;;;4976204;28;20098;-70
2022/08/28 02:41:48;;;;;;;4.22;3.83;;;;;;;;;;4976092;28;20026;-71
2022/08/28 02:44:13;;;;;;;4.57;4.18;;;;;;;;;;4975881;28;20030;-71
2022/08/28 02:46:39;;;;;;;5.88;4.47;;;;;;;;;;4976376;28;20023;-70
2022/08/28 02:49:04;;;;;;;6.55;3.83;;;;;;;;;;4975948;28;20037;-70
2022/08/28 02:51:32;;;;;;;4.90;4.50;;;;;;;;;;4958489;28;20018;-70
2022/08/28 02:53:58;;;;;;;6.20;4.43;;;;;;;;;;4976013;28;20046;-70
2022/08/28 02:56:23;;;;;;;4.57;4.13;;;;;;;;;;4975520;28;20027;-70
2022/08/28 02:58:49;;;;;;;4.88;4.47;;;;;;;;;;4976019;28;20033;-70
2022/08/28 03:01:14;;;;;;;4.85;4.35;;;;;;;;;;4974422;28;20019;-70
2022/08/28 03:03:40;;;;;;;5.82;4.38;;;;;;;;;;4975257;28;20106;-70
2022/08/28 03:06:06;;;;;;;4.47;4.18;;;;;;;;;;4975596;28;20038;-70
2022/08/28 03:08:32;;;;;;;4.60;4.13;;;;;;;;;;4975719;28;20035;-70
2022/08/28 03:10:58;;;;;;;4.55;3.75;;;;;;;;;;4974452;28;20029;-71
2022/08/28 03:13:23;;;;;;;4.57;4.20;;;;;;;;;;4975432;28;20461;-71
2022/08/28 03:15:49;;;;;;;4.95;4.45;;;;;;;;;;4975572;28;20478;-70
2022/08/28 03:18:16;;;;;;;5.05;4.65;;;;;;;;;;4975684;28;20054;-70
2022/08/28 03:20:42;;;;;;;6.78;5.35;;;;;;;;;;4957906;28;20379;-71
2022/08/28 03:23:26;;;;;;;6.13;4.53;;;;;;;;;;4974025;28;20097;-70
2022/08/28 03:26:12;;;;;;;7.03;4.55;;;;;;;;;;4975638;28;20102;-70
2022/08/28 03:28:40;;;;;;;5.43;4.63;;;;;;;;;;4957700;28;20038;-70
2022/08/28 03:31:06;;;;;;;5.53;5.03;;;;;;;;;;4958248;28;20453;-71
2022/08/28 03:33:32;;;;;;;5.22;4.72;;;;;;;;;;4975659;28;20074;-71
2022/08/28 03:35:58;;;;;;;5.25;4.45;;;;;;;;;;4975471;28;20019;-70
2022/08/28 03:38:24;;;;;;;5.47;4.22;;;;;;;;;;4974340;28;20035;-70
2022/08/28 03:40:50;;;;;;;6.97;4.10;;;;;;;;;;4975490;28;20373;-70
2022/08/28 03:43:17;;;;;;;4.53;3.88;;;;;;;;;;4974555;28;20031;-72
2022/08/28 03:45:55;;;;;;;5.47;4.50;;;;;;;;;;4974455;28;20026;-70
2022/08/28 03:48:22;;;;;;;4.57;4.18;;;;;;;;;;4974031;28;20106;-70
2022/08/28 03:50:48;;;;;;;5.90;4.82;;;;;;;;;;4974413;28;20033;-70
2022/08/28 03:53:13;;;;;;;4.60;4.25;;;;;;;;;;4974264;28;20026;-70
2022/08/28 03:55:40;;;;;;;5.50;5.00;;;;;;;;;;4957103;28;20464;-70
2022/08/28 03:58:07;;;;;;;7.95;4.85;;;;;;;;;;4957162;28;20058;-71
2022/08/28 04:00:32;;;;;;;4.95;4.55;;;;;;;;;;4972615;28;20357;-71
2022/08/28 04:02:58;;;;;;;6.05;4.57;;;;;;;;;;4974258;28;20042;-71
2022/08/28 04:05:23;;;;;;;6.45;4.15;;;;;;;;;;4974370;28;20030;-71
2022/08/28 04:07:50;;;;;;;4.50;4.18;;;;;;;;;;4957043;28;20031;-70
2022/08/28 04:10:15;;;;;;;6.68;5.05;;;;;;;;;;4956941;28;20038;-71
2022/08/28 04:12:41;;;;;;;5.82;4.05;;;;;;;;;;4956807;28;20485;-72
2022/08/28 04:15:06;;;;;;;5.22;4.07;;;;;;;;;;4973246;28;20050;-70
2022/08/28 04:17:32;;;;;;;5.97;3.92;;;;;;;;;;4973925;28;20077;-71
2022/08/28 04:19:57;;;;;;;4.93;4.07;;;;;;;;;;4973725;28;20039;-71
2022/08/28 04:22:23;;;;;;;5.85;4.30;;;;;;;;;;4955489;28;20034;-71
2022/08/28 04:24:49;;;;;;;4.30;3.92;;;;;;;;;;4974248;28;20354;-71
2022/08/28 04:27:14;;;;;;;5.45;4.95;;;;;;;;;;4959081;28;20029;-71
2022/08/28 04:29:40;;;;;;;6.40;4.93;;;;;;;;;;4957749;28;20093;-71
2022/08/28 04:32:05;;;;;;;7.90;6.25;;;;;;;;;;4957694;28;20062;-71
2022/08/28 04:34:31;;;;;;;10.00;7.40;;;;;;;;;;4975785;28;20034;-69
2022/08/28 04:36:57;;;;;;;10.00;7.65;;;;;;;;;;4976529;28;20035;-69
2022/08/28 04:39:23;;;;;;;10.25;7.38;;;;;;;;;;4975698;28;20101;-69
2022/08/28 04:41:49;;;;;;;9.38;7.75;;;;;;;;;;4976082;28;20537;-69
2022/08/28 04:44:14;;;;;;;9.13;7.43;;;;;;;;;;4958467;28;20461;-69
2022/08/28 04:46:40;;;;;;;11.98;7.45;;;;;;;;;;4974522;28;20380;-69
2022/08/28 04:49:05;;;;;;;8.80;7.68;;;;;;;;;;4975655;28;20521;-69
2022/08/28 04:51:31;;;;;;;9.82;7.78;;;;;;;;;;4978446;28;20508;-69
2022/08/28 05:05:08;;;;;;;10.50;6.88;;;;;;;;;;5173523;27;20467;-71
2022/08/28 05:07:34;;;;;;;9.13;6.82;;;;;;;;;;5173393;27;20075;-71
2022/08/28 05:09:59;;;;;;;9.88;6.47;;;;;;;;;;5173242;27;20414;-72
2022/08/28 05:12:25;;;;;;;10.07;6.95;;;;;;;;;;5173127;27;20065;-73
2022/08/28 05:14:51;;;;;;;10.73;7.68;;;;;;;;;;5154737;27;20075;-72
2022/08/28 05:17:16;;;;;;;9.45;7.10;;;;;;;;;;5173119;27;20034;-71
2022/08/28 05:19:42;;;;;;;9.15;7.75;;;;;;;;;;5173042;27;20067;-72
2022/08/28 05:22:08;;;;;;;10.80;7.40;;;;;;;;;;5173022;27;20018;-69
2022/08/28 05:24:35;;;;;;;7.90;7.10;;;;;;;;;;5173250;27;20453;-68
2022/08/28 05:27:00;;;;;;;10.40;7.93;;;;;;;;;;5172875;27;20465;-69
2022/08/28 05:29:26;;;;;;;8.00;7.20;;;;;;;;;;5154274;27;20110;-68
2022/08/28 05:31:51;;;;;;;9.20;7.95;;;;;;;;;;5154258;27;20041;-68
2022/08/28 05:34:17;;;;;;;8.50;7.68;;;;;;;;;;5172698;27;20015;-69
2022/08/28 05:36:42;;;;;;;8.27;7.45;;;;;;;;;;5172857;27;20019;-69
2022/08/28 05:39:09;;;;;;;9.45;8.10;;;;;;;;;;5172704;27;20026;-69
2022/08/28 05:41:35;;;;;;;11.32;8.63;;;;;;;;;;5154128;27;20407;-68
2022/08/28 05:44:02;;;;;;;10.82;8.85;;;;;;;;;;5172513;27;20033;-69
2022/08/28 05:46:28;;;;;;;12.15;8.85;;;;;;;;;;5172751;27;20048;-69
2022/08/28 05:48:54;;;;;;;14.48;8.52;;;;;;;;;;5172567;27;20093;-69
2022/08/28 05:51:21;;;;;;;12.77;9.27;;;;;;;;;;5172561;27;20022;-67
2022/08/28 05:53:48;;;;;;;10.48;8.60;;;;;;;;;;5172342;27;20015;-69
2022/08/28 05:56:18;;;;;;;11.60;9.45;;;;;;;;;;5172333;27;20053;-67
2022/08/28 05:58:46;;;;;;;13.38;9.25;;;;;;;;;;5172768;27;20421;-69
2022/08/28 06:01:13;;;;;;;12.25;9.82;;;;;;;;;;5172243;27;20418;-68
2022/08/28 06:03:39;;;;;;;12.80;8.48;;;;;;;;;;5172027;27;20077;-69
2022/08/28 06:06:06;;;;;;;10.93;8.82;;;;;;;;;;5139537;27;20500;-69
2022/08/28 06:08:31;;;;;;;10.05;9.02;;;;;;;;;;5158191;27;20018;-68
2022/08/28 06:10:57;;;;;;;13.50;9.25;;;;;;;;;;5158257;27;20042;-69
2022/08/28 06:13:23;;;;;;;13.40;9.38;;;;;;;;;;5139650;27;20023;-69
2022/08/28 06:15:48;;;;;;;12.75;9.35;;;;;;;;;;5151847;22;20063;-69
2022/08/28 06:18:15;;;;;;;12.27;9.73;;;;;;;;;;5078199;28;20033;-68
2022/08/28 06:20:42;;;;;;;13.05;9.93;;;;;;;;;;5096346;28;20016;-69
2022/08/28 06:23:09;;;;;;;12.45;9.25;;;;;;;;;;5096308;28;20520;-69
2022/08/28 06:25:38;;;;;;;12.95;9.43;;;;;;;;;;5096575;28;20032;-68
2022/08/28 06:28:04;;;;;;;10.47;9.40;;;;;;;;;;5096780;28;20020;-68
2022/08/28 06:30:29;;;;;;;14.10;9.65;;;;;;;;;;5096142;28;20065;-69
2022/08/28 06:32:55;;;;;;;14.63;9.98;;;;;;;;;;5096622;28;20055;-69
2022/08/28 06:35:20;;;;;;;15.57;10.32;;;;;;;;;;5096084;28;20375;-68
2022/08/28 06:37:46;;;;;;;12.18;9.57;;;;;;;;;;5096027;28;20024;-69
2022/08/28 06:40:12;;;;;;;12.20;10.10;;;;;;;;;;5096270;28;20021;-69
2022/08/28 06:42:37;;;;;;;12.50;10.77;;;;;;;;;;5095879;28;20057;-68
2022/08/28 06:45:03;;;;;;;13.07;9.90;;;;;;;;;;5096477;28;20023;-68
2022/08/28 06:47:28;;;;;;;14.30;10.00;;;;;;;;;;5094963;28;20445;-69
2022/08/28 06:49:54;;;;;;;16.75;11.63;;;;;;;;;;5096112;28;20100;-68
2022/08/28 06:52:19;;;;;;;13.27;11.48;;;;;;;;;;5095658;28;20020;-69
2022/08/28 06:54:45;;;;;;;16.58;12.82;;;;;;;;;;5095989;28;20027;-69
2022/08/28 06:57:10;;;;;;;13.98;11.10;;;;;;;;;;5096254;28;20024;-68
2022/08/28 06:59:35;;;;;;;13.18;10.30;;;;;;;;;;5095928;28;20024;-69
2022/08/28 07:02:03;;;;;;;13.38;10.18;;;;;;;;;;5095853;28;20028;-69
2022/08/28 07:04:29;;;;;;;13.98;11.20;;;;;;;;;;5095788;28;20016;-68
2022/08/28 07:06:54;;;;;;;12.63;10.38;;;;;;;;;;5095471;28;20378;-68
2022/08/28 07:09:20;;;;;;;15.30;9.60;;;;;;;;;;5095664;28;20020;-69
2022/08/28 07:11:45;;;;;;;10.20;7.93;;;;;;;;;;5095637;28;20028;-68
2022/08/28 07:14:11;;;;;;;10.75;9.18;;;;;;;;;;5095258;28;20023;-68
2022/08/28 07:16:37;;;;;;;9.75;7.38;;;;;;;;;;5094289;28;20036;-69
2022/08/28 07:19:03;;;;;;;12.30;8.98;;;;;;;;;;5095804;28;20020;-69
2022/08/28 07:21:29;;;;;;;9.43;7.40;;;;;;;;;;5077445;28;20064;-69
2022/08/28 07:23:55;;;;;;;11.00;7.38;;;;;;;;;;5076973;28;20024;-68
2022/08/28 07:26:22;;;;;;;11.63;7.78;;;;;;;;;;5095348;28;20100;-69
2022/08/28 07:28:47;;;;;;;9.32;8.32;;;;;;;;;;5095031;28;20485;-68
2022/08/28 07:31:17;;;;;;;8.82;7.63;;;;;;;;;;5095004;28;20074;-69
2022/08/28 07:33:43;;;;;;;10.95;7.95;;;;;;;;;;5095171;28;20387;-69
2022/08/28 07:36:10;;;;;;;11.65;9.55;;;;;;;;;;5095177;28;20019;-67
2022/08/28 07:38:35;;;;;;;9.52;8.63;;;;;;;;;;5094853;28;20115;-68
2022/08/28 07:41:01;;;;;;;12.25;8.43;;;;;;;;;;5095087;28;20043;-68
2022/08/28 07:46:11;;;;;;;9.75;7.72;;;;;;;;;;5095227;28;20527;-69
2022/08/28 07:48:38;;;;;;;7.95;5.82;;;;;;;;;;5094681;28;20051;-68
2022/08/28 07:51:04;;;;;;;7.95;6.80;;;;;;;;;;5094603;28;20028;-68
2022/08/28 07:53:29;;;;;;;7.63;6.85;;;;;;;;;;5094514;28;20029;-68
2022/08/28 07:55:55;;;;;;;6.82;6.22;;;;;;;;;;5094806;28;20143;-68
2022/08/28 07:58:20;;;;;;;9.02;7.18;;;;;;;;;;5094717;28;20081;-69
2022/08/28 08:00:46;;;;;;;5.75;5.20;;;;;;;;;;5094716;28;20031;-69
2022/08/28 08:03:12;;;;;;;6.55;4.85;;;;;;;;;;5076598;28;20099;-68
2022/08/28 08:05:38;;;;;;;5.65;4.95;;;;;;;;;;5093052;28;20078;-68
2022/08/28 08:08:03;;;;;;;5.75;5.25;;;;;;;;;;5094601;28;20483;-68
2022/08/28 08:10:29;;;;;;;6.72;5.53;;;;;;;;;;5094239;28;20111;-68
2022/08/28 08:12:54;;;;;;;7.88;4.97;;;;;;;;;;5077151;28;20379;-69
2022/08/28 08:15:19;;;;;;;5.22;4.70;;;;;;;;;;5094727;28;20024;-69
2022/08/28 08:17:45;;;;;;;5.90;5.32;;;;;;;;;;5075902;28;20083;-68
2022/08/28 08:20:10;;;;;;;6.70;5.80;;;;;;;;;;5094130;28;20050;-68
2022/08/28 08:22:36;;;;;;;6.10;5.60;;;;;;;;;;5094047;28;20019;-67
2022/08/28 08:25:03;;;;;;;5.85;5.35;;;;;;;;;;5094303;28;20028;-68
2022/08/28 08:27:29;;;;;;;4.97;4.40;;;;;;;;;;5094083;28;20097;-67
2022/08/28 08:29:54;;;;;;;5.25;4.75;;;;;;;;;;5093989;28;20459;-68
2022/08/28 08:32:20;;;;;;;7.53;5.10;;;;;;;;;;5094207;28;20393;-68
2022/08/28 08:34:45;;;;;;;8.07;5.72;;;;;;;;;;5093811;28;20039;-69
2022/08/28 08:37:12;;;;;;;6.85;5.90;;;;;;;;;;5093865;28;20133;-68
2022/08/28 08:39:38;;;;;;;6.28;5.65;;;;;;;;;;5094152;28;20028;-68
2022/08/28 08:42:05;;;;;;;6.30;5.70;;;;;;;;;;5094145;28;20012;-68
2022/08/28 08:44:33;;;;;;;5.75;5.18;;;;;;;;;;5094644;28;20374;-69
2022/08/28 08:47:07;;;;;;;6.55;5.75;;;;;;;;;;5092559;28;20071;-68
2022/08/28 08:49:35;;;;;;;5.53;4.97;;;;;;;;;;5075653;28;20032;-68
2022/08/28 08:52:23;;;;;;;4.93;4.20;;;;;;;;;;5093736;28;20023;-68
2022/08/28 08:55:13;;;;;;;4.82;4.43;;;;;;;;;;5075553;28;20055;-67
2022/08/28 08:57:38;;;;;;;4.43;4.03;;;;;;;;;;5085860;28;20124;-68
2022/08/28 09:00:06;;;;;;;6.70;5.15;;;;;;;;;;5094212;28;20039;-68
2022/08/28 09:02:35;;;;;;;5.07;4.57;;;;;;;;;;5093664;28;20184;-68
2022/08/28 09:05:03;;;;;;;7.43;5.38;;;;;;;;;;5093904;28;20374;-68
2022/08/28 09:07:43;;;;;;;5.72;5.25;;;;;;;;;;5093614;28;20047;-69
2022/08/28 09:10:14;;;;;;;6.07;5.43;;;;;;;;;;5075934;28;20115;-68
2022/08/28 09:12:57;;;;;;;5.63;4.38;;;;;;;;;;5092232;28;20032;-68
2022/08/28 09:15:29;;;;;;;6.38;5.78;;;;;;;;;;5093787;28;20062;-68
2022/08/28 09:17:56;;;;;;;7.25;5.70;;;;;;;;;;5076038;28;20032;-69
2022/08/28 09:20:26;;;;;;;6.53;5.57;;;;;;;;;;5093465;28;20024;-68
2022/08/28 09:22:52;;;;;;;;;;;;;;;;;;5094404;28;20028;-69
2022/08/28 09:25:43;;;;;;;8.75;5.57;;;;;;;;;;5093705;28;20362;-69
2022/08/28 09:28:12;;;;;;;7.28;5.50;;;;;;;;;;5090186;28;20454;-69
2022/08/28 09:30:38;;;;;;;6.18;5.50;;;;;;;;;;5093367;28;20016;-68
2022/08/28 09:33:04;;;;;;;5.97;5.47;;;;;;;;;;5075201;28;20084;-68
2022/08/28 09:35:30;;;;;;;6.30;5.47;;;;;;;;;;5093867;28;20091;-68
2022/08/28 09:38:15;;;;;;;6.50;5.15;;;;;;;;;;5093277;28;20047;-67
2022/08/28 09:43:25;;;;;;;6.30;4.80;;;;;;;;;;5097637;28;20036;-67
2022/08/28 09:46:01;;;;;;;5.88;5.38;;;;;;;;;;5097065;28;20027;-68
2022/08/28 09:48:37;;;;;;;6.03;5.10;;;;;;;;;;5097263;28;20040;-68
2022/08/28 09:51:06;;;;;;;5.32;4.80;;;;;;;;;;5079170;28;20089;-68
2022/08/28 09:53:34;;;;;;;4.63;4.10;;;;;;;;;;5078771;28;20573;-68
2022/08/28 09:56:02;;;;;;;4.93;4.57;;;;;;;;;;5096841;28;20036;-68
2022/08/28 09:58:32;;;;;;;5.43;4.88;;;;;;;;;;5097093;28;20056;-67
2022/08/28 10:01:03;;;;;;;5.82;5.30;;;;;;;;;;5097043;28;20081;-68
2022/08/28 10:03:32;;;;;;;6.18;4.90;;;;;;;;;;5096961;28;20068;-68
2022/08/28 10:05:58;;;;;;;5.47;5.00;;;;;;;;;;5096651;28;20028;-68
2022/08/28 10:08:37;;;;;;;5.20;4.70;;;;;;;;;;5096611;28;20043;-67
2022/08/28 10:11:15;;;;;;;6.13;5.53;;;;;;;;;;5097148;28;20024;-68
2022/08/28 10:13:46;;;;;;;5.32;4.93;;;;;;;;;;5096724;28;20107;-67
2022/08/28 10:16:17;;;;;;;5.50;4.95;;;;;;;;;;5061432;28;20040;-68
2022/08/28 10:18:51;;;;;;;5.22;4.78;;;;;;;;;;5096669;28;20028;-68
2022/08/28 10:21:22;;;;;;;5.32;4.85;;;;;;;;;;5096648;28;20036;-68
2022/08/28 10:24:04;;;;;;;8.13;5.68;;;;;;;;;;5096846;28;20024;-68
2022/08/28 10:26:33;;;;;;;6.28;5.78;;;;;;;;;;5096491;28;20141;-68
2022/08/28 10:28:58;;;;;;;6.68;6.18;;;;;;;;;;5078449;28;20463;-68
2022/08/28 10:31:38;;;;;;;5.85;5.00;;;;;;;;;;5096473;28;20035;-68
2022/08/28 10:34:22;;;;;;;6.57;5.13;;;;;;;;;;5096366;28;20032;-69
2022/08/28 10:36:57;;;;;;;5.05;4.63;;;;;;;;;;5096369;28;20024;-69
2022/08/28 10:39:41;;;;;;;6.40;4.70;;;;;;;;;;5096018;28;20057;-68
2022/08/28 10:42:06;;;;;;;5.53;4.50;;;;;;;;;;5096261;28;20024;-68
2022/08/28 10:44:37;;;;;;;5.43;4.85;;;;;;;;;;5095971;28;20062;-69
2022/08/28 10:47:04;;;;;;;5.90;5.07;;;;;;;;;;5096141;28;20477;-69
2022/08/28 10:49:38;;;;;;;5.90;5.40;;;;;;;;;;5077800;28;20024;-67
2022/08/28 10:52:05;;;;;;;6.65;6.03;;;;;;;;;;5095723;28;20054;-68
2022/08/28 10:54:38;;;;;;;8.90;6.45;;;;;;;;;;5077505;28;20020;-68
2022/08/28 10:57:06;;;;;;;6.80;5.93;;;;;;;;;;5095964;28;20047;-68
2022/08/28 10:59:38;;;;;;;6.18;5.57;;;;;;;;;;5095640;28;20104;-68
2022/08/28 11:02:05;;;;;;;6.90;6.20;;;;;;;;;;5096152;28;20028;-68
2022/08/28 11:04:31;;;;;;;7.10;6.45;;;;;;;;;;5095808;28;20023;-68
2022/08/28 11:06:59;;;;;;;7.82;6.65;;;;;;;;;;5095458;28;20390;-68
2022/08/28 11:09:32;;;;;;;8.43;6.28;;;;;;;;;;5095433;28;20016;-68
2022/08/28 11:12:00;;;;;;;7.25;6.25;;;;;;;;;;5095652;28;20424;-68
2022/08/28 11:14:28;;;;;;;7.38;6.45;;;;;;;;;;5095250;28;20020;-67
2022/08/28 11:16:57;;;;;;;6.65;6.05;;;;;;;;;;5095251;28;20130;-69
2022/08/28 11:19:58;;;;;;;6.28;5.70;;;;;;;;;;5095526;28;20383;-68
2022/08/28 11:22:27;;;;;;;6.55;6.03;;;;;;;;;;5033215;28;20414;-68
2022/08/28 11:24:53;;;;;;;7.30;6.57;;;;;;;;;;5083676;28;20036;-67
2022/08/28 11:27:23;;;;;;;8.15;7.00;;;;;;;;;;5095345;28;20018;-68
2022/08/28 11:29:57;;;;;;;6.75;5.78;;;;;;;;;;5095014;28;20024;-68
2022/08/28 11:32:34;;;;;;;6.10;5.50;;;;;;;;;;5094884;28;20103;-69
2022/08/28 11:35:01;;;;;;;7.40;5.18;;;;;;;;;;5094820;28;20036;-68
2022/08/28 11:37:40;;;;;;;11.18;7.57;;;;;;;;;;5094839;28;20012;-68
2022/08/28 11:40:15;;;;;;;5.43;4.85;;;;;;;;;;5094797;28;20111;-68
2022/08/28 11:42:41;;;;;;;6.32;5.70;;;;;;;;;;5095074;28;20067;-68
2022/08/28 11:45:16;;;;;;;4.05;3.72;;;;;;;;;;5076972;28;20043;-68
2022/08/28 11:47:43;;;;;;;8.38;6.47;;;;;;;;;;5095270;28;20031;-68
2022/08/28 11:50:14;;;;;;;8.48;7.68;;;;;;;;;;5094426;28;20069;-68
2022/08/28 11:52:52;;;;;;;7.68;6.88;;;;;;;;;;5094034;28;20024;-68
2022/08/28 11:55:28;;;;;;;6.32;5.70;;;;;;;;;;5094281;28;20051;-68
2022/08/28 11:57:53;;;;;;;11.13;8.57;;;;;;;;;;5093278;28;20114;-68
2022/08/28 12:00:28;;;;;;;11.85;9.77;;;;;;;;;;5094241;28;20046;-68
2022/08/28 12:03:08;;;;;;;18.58;14.45;;;;;;;;;;5093793;28;20036;-69
2022/08/28 12:05:37;;;;;;;13.65;10.48;;;;;;;;;;5094294;28;20047;-68
2022/08/28 12:08:03;;;;;;;9.15;8.20;;;;;;;;;;5075648;28;20020;-68
2022/08/28 12:10:29;;;;;;;9.73;7.05;;;;;;;;;;5092789;28;20633;-69
2022/08/28 12:13:02;;;;;;;9.48;7.60;;;;;;;;;;5094090;28;20024;-68
2022/08/28 12:15:28;;;;;;;10.80;7.47;;;;;;;;;;5093924;28;20081;-68
2022/08/28 12:17:56;;;;;;;11.48;8.23;;;;;;;;;;5093136;28;20036;-68
2022/08/28 12:20:23;;;;;;;12.80;8.93;;;;;;;;;;5093316;28;20028;-68
2022/08/28 12:22:51;;;;;;;10.07;8.50;;;;;;;;;;5093331;28;20012;-68
2022/08/28 12:25:27;;;;;;;13.00;9.35;;;;;;;;;;5093110;28;20057;-69
2022/08/28 12:27:53;;;;;;;12.77;9.32;;;;;;;;;;5093142;28;20027;-67
2022/08/28 12:30:29;;;;;;;12.68;10.05;;;;;;;;;;5093214;28;20467;-69
2022/08/28 12:32:59;;;;;;;10.40;8.75;;;;;;;;;;5093015;28;20463;-68
2022/08/28 12:35:25;;;;;;;;;;;;;;;;;;5093514;28;20039;-68
2022/08/28 12:37:53;;;;;;;12.20;9.53;;;;;;;;;;5092984;28;19905;-68
2022/08/28 12:40:49;;;;;;;15.70;10.27;;;;;;;;;;5093066;28;20353;-69
2022/08/28 12:43:19;;;;;;;13.98;11.13;;;;;;;;;;5092967;28;20024;-69
2022/08/28 12:45:48;;;;;;;12.90;11.15;;;;;;;;;;5092712;28;20024;-71
2022/08/28 12:48:21;;;;;;;11.65;9.90;;;;;;;;;;5074806;28;20383;-72
2022/08/28 12:50:48;;;;;;;9.73;8.73;;;;;;;;;;5092876;28;20028;-71
2022/08/28 12:53:15;;;;;;;10.40;9.07;;;;;;;;;;5092783;28;20020;-71
2022/08/28 12:55:42;;;;;;;11.60;8.20;;;;;;;;;;5092863;28;20543;-71
2022/08/28 12:58:14;;;;;;;10.18;9.13;;;;;;;;;;5092739;28;20066;-71
2022/08/28 13:00:51;;;;;;;10.30;8.88;;;;;;;;;;5074814;28;20020;-72
2022/08/28 13:03:17;;;;;;;9.82;8.63;;;;;;;;;;5092742;28;20032;-72
2022/08/28 13:05:43;;;;;;;14.88;11.75;;;;;;;;;;5092893;28;20032;-72
2022/08/28 13:08:10;;;;;;;20.10;14.18;;;;;;;;;;5092688;28;20112;-72
2022/08/28 13:10:54;;;;;;;15.13;11.63;;;;;;;;;;5092738;28;20024;-71
2022/08/28 13:13:21;;;;;;;15.38;10.73;;;;;;;;;;5092657;28;20028;-71
2022/08/28 13:15:48;;;;;;;12.73;11.15;;;;;;;;;;5077186;28;20028;-71
2022/08/28 13:18:34;;;;;;;15.93;11.68;;;;;;;;;;5096923;28;20388;-68
2022/08/28 13:21:21;;;;;;;9.57;8.60;;;;;;;;;;5078457;28;20066;-70
2022/08/28 13:23:49;;;;;;;8.93;7.82;;;;;;;;;;5096569;28;20059;-70
2022/08/28 13:26:26;;;;;;;11.02;8.63;;;;;;;;;;5078579;28;20055;-70
2022/08/28 13:28:51;;;;;;;10.02;8.75;;;;;;;;;;5078488;28;20032;-70
2022/08/28 13:31:28;;;;;;;9.15;8.18;;;;;;;;;;5096481;28;20030;-70
2022/08/28 13:34:03;;;;;;;8.43;7.63;;;;;;;;;;5100011;22;20081;-69
2022/08/28 13:36:38;;;;;;;10.13;8.80;;;;;;;;;;5029863;28;20056;-70
2022/08/28 13:39:03;;;;;;;9.32;8.40;;;;;;;;;;5032860;28;20053;-69
2022/08/28 13:41:29;;;;;;;8.25;7.50;;;;;;;;;;5032502;28;20049;-70
2022/08/28 13:43:54;;;;;;;14.43;7.93;;;;;;;;;;5032452;28;20063;-70
2022/08/28 13:46:20;;;;;;;10.07;8.25;;;;;;;;;;5032696;28;20456;-70
2022/08/28 13:48:45;;;;;;;8.63;6.60;;;;;;;;;;5032400;28;20384;-70
2022/08/28 13:51:11;;;;;;;7.63;7.00;;;;;;;;;;5032328;28;20032;-71
2022/08/28 13:53:37;;;;;;;6.18;5.68;;;;;;;;;;5032247;28;20029;-70
2022/08/28 13:56:03;;;;;;;5.93;5.43;;;;;;;;;;5032232;28;20056;-71
2022/08/28 13:58:31;;;;;;;8.20;5.82;;;;;;;;;;5032199;28;20032;-70
2022/08/28 14:00:56;;;;;;;6.10;5.45;;;;;;;;;;5032151;28;20025;-69
2022/08/28 14:03:34;;;;;;;5.60;5.18;;;;;;;;;;5032123;28;20030;-70
2022/08/28 14:06:04;;;;;;;5.00;4.60;;;;;;;;;;5032074;28;20029;-70
2022/08/28 14:08:30;;;;;;;;;;;;;;;;;;5032491;28;20034;-71
2022/08/28 14:10:56;;;;;;;7.13;4.28;;;;;;;;;;5032031;28;20355;-71
2022/08/28 14:13:24;;;;;;;4.18;3.80;;;;;;;;;;5031920;28;20038;-71
2022/08/28 14:15:49;;;;;;;4.38;4.07;;;;;;;;;;5032011;28;20376;-71
2022/08/28 14:18:16;;;;;;;4.38;3.90;;;;;;;;;;5091781;28;20037;-71
2022/08/28 14:20:42;;;;;;;7.03;4.07;;;;;;;;;;5029893;28;20493;-70
2022/08/28 14:23:07;;;;;;;5.63;3.92;;;;;;;;;;5028901;28;20124;-70
2022/08/28 14:25:38;;;;;;;5.72;4.15;;;;;;;;;;5028547;28;20063;-70
2022/08/28 14:28:04;;;;;;;5.53;5.03;;;;;;;;;;5029815;28;20030;-70
2022/08/28 14:30:29;;;;;;;5.47;4.97;;;;;;;;;;5029926;28;20101;-70
2022/08/28 14:32:56;;;;;;;6.53;4.38;;;;;;;;;;5029170;28;20049;-69
2022/08/28 14:35:22;;;;;;;5.32;3.90;;;;;;;;;;5097670;28;20422;-70
2022/08/28 14:37:47;;;;;;;5.25;3.50;;;;;;;;;;5029722;28;20045;-71
2022/08/28 14:40:13;;;;;;;4.22;3.28;;;;;;;;;;5029271;28;20033;-71
2022/08/28 14:42:40;;;;;;;4.90;2.58;;;;;;;;;;5028786;28;20030;-70
2022/08/28 14:45:06;;;;;;;5.28;2.80;;;;;;;;;;5029396;28;20028;-71
2022/08/28 14:47:31;;;;;;;3.35;3.00;;;;;;;;;;5029214;28;20116;-70
2022/08/28 14:49:57;;;;;;;8.73;3.67;;;;;;;;;;5029889;28;20034;-70
2022/08/28 14:52:22;;;;;;;3.33;3.08;;;;;;;;;;5098107;28;20032;-70
2022/08/28 14:54:48;;;;;;;2.65;2.45;;;;;;;;;;5032308;28;20029;-70
2022/08/28 14:57:13;;;;;;;4.90;2.90;;;;;;;;;;5032309;28;20029;-70
2022/08/28 14:59:39;;;;;;;4.13;2.95;;;;;;;;;;5100522;28;20017;-70
2022/08/28 15:02:06;;;;;;;3.53;3.00;;;;;;;;;;5032229;28;20461;-71
2022/08/28 15:04:34;;;;;;;2.70;2.50;;;;;;;;;;5031723;28;20033;-70
2022/08/28 15:07:01;;;;;;;3.55;2.13;;;;;;;;;;5032234;28;20041;-70
2022/08/28 15:09:26;;;;;;;1.75;1.65;;;;;;;;;;5101169;28;20021;-70